Saint-Casimir, Canada
Current Conditions -  °F | °C
As of 7:16 PM on Friday 19 Dec 2014 (Local Time) from CYOY Reporting Station
Clear Clear  
Wind Chill: 10°   Ceiling: Unl
Heat Index: 10°   Visibility: 9mi
Dew Point:   Wind: 2mph
Humidity: 92%   Direction: 60°ENE
Pressure: 30.09"   Gusts: NA
Location:  46.67°N, 72.13°W
Report Text: CYOY 200016Z AUTO 06002KT 9SM CLR M12/M13 A3009 RMK ICG
Loading
Personal Weather Stations






























Interactive Weather Map New forecast layout! Learn more

10-Day Weather Forecast

Advertisements
Track Severe Weather on mobile